Terminal Aerodrome Forecast
Issued by NWS Newport/Morehead City, NC

Home | Current Version | Previous Version | Graphics & Text | Print | Product List | Glossary On
Versions: 1 2 3 4 5 6 7 8 9 10 11 12 13 14 15 16 17 18 19
000
FTUS42 KMHX 211131
TAFEWN
TAF
KEWN 211131Z 2112/2212 00000KT P6SM SCT080
      TEMPO 2112/2113 5SM BR
     FM211800 VRB03KT P6SM VCSH SCT050
      TEMPO 2118/2122 4SM TS BKN050CB
     FM212200 VRB03KT P6SM SCT050
     FM221100 00000KT 3SM BR SCT250=

USA.gov is the U.S. government's official web portal to all federal, state and local government web resources and services.